sensor_id;sensor_type;location;lat;lon;timestamp;temperature;humidity
9971;DHT22;5026;51.494;11.974;2023-06-10T00:01:40;18.60;87.40
9971;DHT22;5026;51.494;11.974;2023-06-10T00:04:08;18.50;88.40
9971;DHT22;5026;51.494;11.974;2023-06-10T00:06:35;18.40;89.20
9971;DHT22;5026;51.494;11.974;2023-06-10T00:09:03;18.50;89.90
9971;DHT22;5026;51.494;11.974;2023-06-10T00:11:31;18.30;90.30
9971;DHT22;5026;51.494;11.974;2023-06-10T00:13:59;18.30;90.80
9971;DHT22;5026;51.494;11.974;2023-06-10T00:18:53;18.20;91.50
9971;DHT22;5026;51.494;11.974;2023-06-10T00:21:27;18.10;91.90
9971;DHT22;5026;51.494;11.974;2023-06-10T00:26:22;18.10;92.60
9971;DHT22;5026;51.494;11.974;2023-06-10T00:28:49;17.90;92.90
9971;DHT22;5026;51.494;11.974;2023-06-10T00:31:17;18.00;93.30
9971;DHT22;5026;51.494;11.974;2023-06-10T00:33:44;17.90;93.70
9971;DHT22;5026;51.494;11.974;2023-06-10T00:38:39;17.90;94.20
9971;DHT22;5026;51.494;11.974;2023-06-10T00:43:34;17.90;94.70
9971;DHT22;5026;51.494;11.974;2023-06-10T00:46:01;17.80;94.90
9971;DHT22;5026;51.494;11.974;2023-06-10T00:50:56;17.70;95.40
9971;DHT22;5026;51.494;11.974;2023-06-10T00:53:23;17.40;95.80
9971;DHT22;5026;51.494;11.974;2023-06-10T00:55:52;17.50;96.10
9971;DHT22;5026;51.494;11.974;2023-06-10T00:58:19;17.40;96.30
9971;DHT22;5026;51.494;11.974;2023-06-10T01:00:46;17.30;96.70
9971;DHT22;5026;51.494;11.974;2023-06-10T01:05:43;17.20;97.40
9971;DHT22;5026;51.494;11.974;2023-06-10T01:08:24;17.10;97.60
9971;DHT22;5026;51.494;11.974;2023-06-10T01:10:59;17.20;97.90
9971;DHT22;5026;51.494;11.974;2023-06-10T01:13:27;17.00;98.10
9971;DHT22;5026;51.494;11.974;2023-06-10T01:15:57;16.90;98.60
9971;DHT22;5026;51.494;11.974;2023-06-10T01:18:30;16.80;98.90
9971;DHT22;5026;51.494;11.974;2023-06-10T01:20:57;16.80;99.40
9971;DHT22;5026;51.494;11.974;2023-06-10T01:23:25;16.70;99.80
9971;DHT22;5026;51.494;11.974;2023-06-10T01:25:57;16.70;99.90
9971;DHT22;5026;51.494;11.974;2023-06-10T01:28:31;16.50;99.90
9971;DHT22;5026;51.494;11.974;2023-06-10T01:31:07;16.50;99.90
9971;DHT22;5026;51.494;11.974;2023-06-10T01:33:43;16.50;99.90
9971;DHT22;5026;51.494;11.974;2023-06-10T01:36:13;16.40;99.90
9971;DHT22;5026;51.494;11.974;2023-06-10T01:38:45;16.30;99.90
9971;DHT22;5026;51.494;11.974;2023-06-10T01:41:13;16.20;99.90
9971;DHT22;5026;51.494;11.974;2023-06-10T01:43:43;16.30;99.90
9971;DHT22;5026;51.494;11.974;2023-06-10T01:46:10;16.30;99.90
9971;DHT22;5026;51.494;11.974;2023-06-10T01:48:38;16.10;99.90
9971;DHT22;5026;51.494;11.974;2023-06-10T01:51:05;16.00;99.90
9971;DHT22;5026;51.494;11.974;2023-06-10T01:53:32;16.10;99.90
9971;DHT22;5026;51.494;11.974;2023-06-10T01:56:00;16.00;99.90
9971;DHT22;5026;51.494;11.974;2023-06-10T01:58:27;15.80;99.90
9971;DHT22;5026;51.494;11.974;2023-06-10T02:00:54;15.70;99.90
9971;DHT22;5026;51.494;11.974;2023-06-10T02:03:21;15.70;99.90
9971;DHT22;5026;51.494;11.974;2023-06-10T02:08:16;15.60;99.90
9971;DHT22;5026;51.494;11.974;2023-06-10T02:10:43;15.50;99.90
9971;DHT22;5026;51.494;11.974;2023-06-10T02:13:11;15.50;99.90
9971;DHT22;5026;51.494;11.974;2023-06-10T02:18:05;15.50;99.90
9971;DHT22;5026;51.494;11.974;2023-06-10T02:20:32;15.50;99.90
9971;DHT22;5026;51.494;11.974;2023-06-10T02:22:59;15.40;99.90
9971;DHT22;5026;51.494;11.974;2023-06-10T02:27:53;15.20;99.90
9971;DHT22;5026;51.494;11.974;2023-06-10T02:30:22;15.20;99.90
9971;DHT22;5026;51.494;11.974;2023-06-10T02:35:18;15.10;99.90
9971;DHT22;5026;51.494;11.974;2023-06-10T02:40:12;15.20;99.90
9971;DHT22;5026;51.494;11.974;2023-06-10T02:45:07;15.10;99.90
9971;DHT22;5026;51.494;11.974;2023-06-10T02:47:37;15.00;99.90
9971;DHT22;5026;51.494;11.974;2023-06-10T02:50:05;15.00;99.90
9971;DHT22;5026;51.494;11.974;2023-06-10T02:52:32;14.90;99.90
9971;DHT22;5026;51.494;11.974;2023-06-10T02:54:59;14.90;99.90
9971;DHT22;5026;51.494;11.974;2023-06-10T02:57:26;14.90;99.90
9971;DHT22;5026;51.494;11.974;2023-06-10T02:59:53;14.80;99.90
9971;DHT22;5026;51.494;11.974;2023-06-10T03:02:20;14.80;99.90
9971;DHT22;5026;51.494;11.974;2023-06-10T03:04:48;14.90;99.90
9971;DHT22;5026;51.494;11.974;2023-06-10T03:07:16;14.80;99.90
9971;DHT22;5026;51.494;11.974;2023-06-10T03:09:44;14.90;99.90
9971;DHT22;5026;51.494;11.974;2023-06-10T03:12:11;14.80;99.90
9971;DHT22;5026;51.494;11.974;2023-06-10T03:14:38;14.90;99.90
9971;DHT22;5026;51.494;11.974;2023-06-10T03:17:05;14.80;99.90
9971;DHT22;5026;51.494;11.974;2023-06-10T03:19:33;14.80;99.90
9971;DHT22;5026;51.494;11.974;2023-06-10T03:22:09;14.80;99.90
9971;DHT22;5026;51.494;11.974;2023-06-10T03:24:37;14.80;99.90
9971;DHT22;5026;51.494;11.974;2023-06-10T03:27:06;14.70;99.90
9971;DHT22;5026;51.494;11.974;2023-06-10T03:32:00;14.80;99.90
9971;DHT22;5026;51.494;11.974;2023-06-10T03:39:24;14.90;99.90
9971;DHT22;5026;51.494;11.974;2023-06-10T03:41:51;15.00;99.90
9971;DHT22;5026;51.494;11.974;2023-06-10T03:44:18;14.90;99.90
9971;DHT22;5026;51.494;11.974;2023-06-10T03:49:13;15.00;99.90
9971;DHT22;5026;51.494;11.974;2023-06-10T03:51:40;15.00;99.90
9971;DHT22;5026;51.494;11.974;2023-06-10T03:54:07;15.00;99.90
9971;DHT22;5026;51.494;11.974;2023-06-10T03:56:35;14.90;99.90
9971;DHT22;5026;51.494;11.974;2023-06-10T03:59:02;15.10;99.90
9971;DHT22;5026;51.494;11.974;2023-06-10T04:06:26;15.20;99.90
9971;DHT22;5026;51.494;11.974;2023-06-10T04:08:54;15.30;99.90
9971;DHT22;5026;51.494;11.974;2023-06-10T04:13:51;15.50;99.90
9971;DHT22;5026;51.494;11.974;2023-06-10T04:16:18;15.50;99.90
9971;DHT22;5026;51.494;11.974;2023-06-10T04:18:45;15.40;99.90
9971;DHT22;5026;51.494;11.974;2023-06-10T04:21:12;15.30;99.90
9971;DHT22;5026;51.494;11.974;2023-06-10T04:23:38;15.20;99.90
9971;DHT22;5026;51.494;11.974;2023-06-10T04:28:33;15.30;99.90
9971;DHT22;5026;51.494;11.974;2023-06-10T04:31:01;15.30;99.90
9971;DHT22;5026;51.494;11.974;2023-06-10T04:33:29;15.30;99.90
9971;DHT22;5026;51.494;11.974;2023-06-10T04:35:57;15.20;99.90
9971;DHT22;5026;51.494;11.974;2023-06-10T04:38:24;15.30;99.90
9971;DHT22;5026;51.494;11.974;2023-06-10T04:40:50;15.30;99.90
9971;DHT22;5026;51.494;11.974;2023-06-10T04:48:14;15.70;99.90
9971;DHT22;5026;51.494;11.974;2023-06-10T04:50:40;16.00;99.90
9971;DHT22;5026;51.494;11.974;2023-06-10T04:53:07;16.30;99.90
9971;DHT22;5026;51.494;11.974;2023-06-10T04:58:02;16.40;99.90
9971;DHT22;5026;51.494;11.974;2023-06-10T05:00:29;16.20;99.90
9971;DHT22;5026;51.494;11.974;2023-06-10T05:02:55;16.40;99.90
9971;DHT22;5026;51.494;11.974;2023-06-10T05:05:24;16.00;99.90
9971;DHT22;5026;51.494;11.974;2023-06-10T05:15:12;16.80;99.90
9971;DHT22;5026;51.494;11.974;2023-06-10T05:17:39;16.90;99.90
9971;DHT22;5026;51.494;11.974;2023-06-10T05:20:07;16.70;99.90
9971;DHT22;5026;51.494;11.974;2023-06-10T05:22:35;17.50;99.90
9971;DHT22;5026;51.494;11.974;2023-06-10T05:25:03;17.50;99.90
9971;DHT22;5026;51.494;11.974;2023-06-10T05:29:58;18.00;99.90
9971;DHT22;5026;51.494;11.974;2023-06-10T05:32:25;18.20;99.90
9971;DHT22;5026;51.494;11.974;2023-06-10T05:37:19;20.00;99.90
9971;DHT22;5026;51.494;11.974;2023-06-10T05:39:47;21.60;99.90
9971;DHT22;5026;51.494;11.974;2023-06-10T05:44:41;24.40;99.00
9971;DHT22;5026;51.494;11.974;2023-06-10T05:47:09;25.40;96.70
9971;DHT22;5026;51.494;11.974;2023-06-10T05:54:30;28.40;90.20
9971;DHT22;5026;51.494;11.974;2023-06-10T05:56:59;28.90;87.60
9971;DHT22;5026;51.494;11.974;2023-06-10T06:01:53;30.40;80.00
9971;DHT22;5026;51.494;11.974;2023-06-10T06:04:20;31.10;77.20
9971;DHT22;5026;51.494;11.974;2023-06-10T06:06:47;31.30;75.40
9971;DHT22;5026;51.494;11.974;2023-06-10T06:09:13;32.70;73.40
9971;DHT22;5026;51.494;11.974;2023-06-10T06:11:41;33.70;71.10
9971;DHT22;5026;51.494;11.974;2023-06-10T06:14:09;33.90;69.80
9971;DHT22;5026;51.494;11.974;2023-06-10T06:16:36;34.60;67.40
9971;DHT22;5026;51.494;11.974;2023-06-10T06:21:30;35.20;65.00
9971;DHT22;5026;51.494;11.974;2023-06-10T06:26:24;36.70;63.10
9971;DHT22;5026;51.494;11.974;2023-06-10T06:28:52;36.30;63.10
9971;DHT22;5026;51.494;11.974;2023-06-10T06:31:20;36.00;62.50
9971;DHT22;5026;51.494;11.974;2023-06-10T06:36:14;38.40;60.20
9971;DHT22;5026;51.494;11.974;2023-06-10T06:38:41;38.00;58.40
9971;DHT22;5026;51.494;11.974;2023-06-10T06:41:08;38.40;58.40
9971;DHT22;5026;51.494;11.974;2023-06-10T06:43:35;38.80;57.60
9971;DHT22;5026;51.494;11.974;2023-06-10T06:48:30;39.30;55.60
9971;DHT22;5026;51.494;11.974;2023-06-10T06:53:25;39.70;55.20
9971;DHT22;5026;51.494;11.974;2023-06-10T06:55:52;40.30;54.70
9971;DHT22;5026;51.494;11.974;2023-06-10T06:58:19;38.80;54.60
9971;DHT22;5026;51.494;11.974;2023-06-10T07:03:13;39.20;54.00
9971;DHT22;5026;51.494;11.974;2023-06-10T07:05:41;41.00;58.70
9971;DHT22;5026;51.494;11.974;2023-06-10T07:13:03;40.00;53.30
9971;DHT22;5026;51.494;11.974;2023-06-10T07:15:30;37.40;54.30
9971;DHT22;5026;51.494;11.974;2023-06-10T07:17:58;35.20;56.40
9971;DHT22;5026;51.494;11.974;2023-06-10T07:22:54;37.40;56.70
9971;DHT22;5026;51.494;11.974;2023-06-10T07:25:22;38.90;54.90
9971;DHT22;5026;51.494;11.974;2023-06-10T07:27:49;40.10;54.30
9971;DHT22;5026;51.494;11.974;2023-06-10T07:32:43;37.50;55.10
9971;DHT22;5026;51.494;11.974;2023-06-10T07:40:07;39.10;54.00
9971;DHT22;5026;51.494;11.974;2023-06-10T07:42:35;38.60;54.90
9971;DHT22;5026;51.494;11.974;2023-06-10T07:45:03;40.20;53.70
9971;DHT22;5026;51.494;11.974;2023-06-10T07:47:30;39.90;52.40
9971;DHT22;5026;51.494;11.974;2023-06-10T07:49:57;37.90;52.60
9971;DHT22;5026;51.494;11.974;2023-06-10T07:52:24;36.50;55.80
9971;DHT22;5026;51.494;11.974;2023-06-10T07:54:51;35.50;55.70
9971;DHT22;5026;51.494;11.974;2023-06-10T07:57:19;33.90;57.20
9971;DHT22;5026;51.494;11.974;2023-06-10T08:02:14;31.20;60.10
9971;DHT22;5026;51.494;11.974;2023-06-10T08:04:41;29.00;63.20
9971;DHT22;5026;51.494;11.974;2023-06-10T08:12:04;33.40;60.70
9971;DHT22;5026;51.494;11.974;2023-06-10T08:14:32;33.80;59.60
9971;DHT22;5026;51.494;11.974;2023-06-10T08:16:59;34.60;58.50
9971;DHT22;5026;51.494;11.974;2023-06-10T08:21:54;30.10;62.80
9971;DHT22;5026;51.494;11.974;2023-06-10T08:24:20;28.70;63.10
9971;DHT22;5026;51.494;11.974;2023-06-10T08:29:15;32.80;62.80
9971;DHT22;5026;51.494;11.974;2023-06-10T08:31:44;34.20;60.30
9971;DHT22;5026;51.494;11.974;2023-06-10T08:36:38;29.30;65.10
9971;DHT22;5026;51.494;11.974;2023-06-10T08:41:35;33.20;62.30
9971;DHT22;5026;51.494;11.974;2023-06-10T08:44:07;32.40;62.00
9971;DHT22;5026;51.494;11.974;2023-06-10T08:46:36;33.90;61.00
9971;DHT22;5026;51.494;11.974;2023-06-10T08:49:06;32.40;60.20
9971;DHT22;5026;51.494;11.974;2023-06-10T08:51:35;31.90;62.60
9971;DHT22;5026;51.494;11.974;2023-06-10T08:54:05;31.50;62.00
9971;DHT22;5026;51.494;11.974;2023-06-10T08:56:38;33.50;61.70
9971;DHT22;5026;51.494;11.974;2023-06-10T09:04:01;30.30;62.90
9971;DHT22;5026;51.494;11.974;2023-06-10T09:06:32;31.50;63.10
9971;DHT22;5026;51.494;11.974;2023-06-10T09:11:26;27.80;66.00
9971;DHT22;5026;51.494;11.974;2023-06-10T09:13:54;27.90;65.50
9971;DHT22;5026;51.494;11.974;2023-06-10T09:18:48;27.40;68.00
9971;DHT22;5026;51.494;11.974;2023-06-10T09:23:48;29.40;66.00
9971;DHT22;5026;51.494;11.974;2023-06-10T09:26:16;30.50;65.00
9971;DHT22;5026;51.494;11.974;2023-06-10T09:28:44;30.50;64.70
9971;DHT22;5026;51.494;11.974;2023-06-10T09:31:11;29.00;65.60
9971;DHT22;5026;51.494;11.974;2023-06-10T09:33:39;27.90;66.90
9971;DHT22;5026;51.494;11.974;2023-06-10T09:36:07;29.20;66.50
9971;DHT22;5026;51.494;11.974;2023-06-10T09:38:35;30.10;65.80
9971;DHT22;5026;51.494;11.974;2023-06-10T09:41:04;28.80;65.90
9971;DHT22;5026;51.494;11.974;2023-06-10T09:43:41;29.20;66.80
9971;DHT22;5026;51.494;11.974;2023-06-10T09:46:15;31.20;65.30
9971;DHT22;5026;51.494;11.974;2023-06-10T09:48:45;31.40;64.80
9971;DHT22;5026;51.494;11.974;2023-06-10T09:51:12;31.30;64.30
9971;DHT22;5026;51.494;11.974;2023-06-10T09:53:40;27.90;66.60
9971;DHT22;5026;51.494;11.974;2023-06-10T09:56:08;28.80;67.00
9971;DHT22;5026;51.494;11.974;2023-06-10T09:58:36;29.00;66.20
9971;DHT22;5026;51.494;11.974;2023-06-10T10:01:08;28.20;68.00
9971;DHT22;5026;51.494;11.974;2023-06-10T10:03:43;28.60;67.80
9971;DHT22;5026;51.494;11.974;2023-06-10T10:06:12;28.60;67.30
9971;DHT22;5026;51.494;11.974;2023-06-10T10:13:35;25.40;72.30
9971;DHT22;5026;51.494;11.974;2023-06-10T10:16:06;25.30;72.70
9971;DHT22;5026;51.494;11.974;2023-06-10T10:18:39;25.50;74.00
9971;DHT22;5026;51.494;11.974;2023-06-10T10:21:12;25.80;72.90
9971;DHT22;5026;51.494;11.974;2023-06-10T10:23:52;25.00;72.40
9971;DHT22;5026;51.494;11.974;2023-06-10T10:26:22;25.80;72.40
9971;DHT22;5026;51.494;11.974;2023-06-10T10:28:57;26.40;71.60
9971;DHT22;5026;51.494;11.974;2023-06-10T10:31:27;25.30;72.40
9971;DHT22;5026;51.494;11.974;2023-06-10T10:33:59;26.00;73.20
9971;DHT22;5026;51.494;11.974;2023-06-10T10:36:27;26.20;72.50
9971;DHT22;5026;51.494;11.974;2023-06-10T10:38:54;26.00;72.90
9971;DHT22;5026;51.494;11.974;2023-06-10T10:41:24;25.30;73.20
9971;DHT22;5026;51.494;11.974;2023-06-10T10:48:53;25.00;75.50
9971;DHT22;5026;51.494;11.974;2023-06-10T10:51:21;24.80;75.20
9971;DHT22;5026;51.494;11.974;2023-06-10T10:54:09;24.80;75.80
9971;DHT22;5026;51.494;11.974;2023-06-10T10:56:38;25.40;75.50
9971;DHT22;5026;51.494;11.974;2023-06-10T11:01:40;25.40;74.50
9971;DHT22;5026;51.494;11.974;2023-06-10T11:06:35;25.70;75.10
9971;DHT22;5026;51.494;11.974;2023-06-10T11:09:25;25.40;74.50
9971;DHT22;5026;51.494;11.974;2023-06-10T11:11:56;25.70;74.80
9971;DHT22;5026;51.494;11.974;2023-06-10T11:14:27;26.30;74.40
9971;DHT22;5026;51.494;11.974;2023-06-10T11:16:56;26.60;74.30
9971;DHT22;5026;51.494;11.974;2023-06-10T11:19:34;25.90;74.30
9971;DHT22;5026;51.494;11.974;2023-06-10T11:22:02;26.30;75.00
9971;DHT22;5026;51.494;11.974;2023-06-10T11:24:30;26.20;74.60
9971;DHT22;5026;51.494;11.974;2023-06-10T11:27:18;25.90;75.00
9971;DHT22;5026;51.494;11.974;2023-06-10T11:32:32;25.80;74.20
9971;DHT22;5026;51.494;11.974;2023-06-10T11:37:27;26.20;75.20
9971;DHT22;5026;51.494;11.974;2023-06-10T11:42:23;26.00;73.60
9971;DHT22;5026;51.494;11.974;2023-06-10T11:44:51;26.20;74.20
9971;DHT22;5026;51.494;11.974;2023-06-10T11:47:19;26.30;73.70
9971;DHT22;5026;51.494;11.974;2023-06-10T11:49:56;26.30;73.80
9971;DHT22;5026;51.494;11.974;2023-06-10T11:52:26;26.70;74.30
9971;DHT22;5026;51.494;11.974;2023-06-10T11:54:54;26.70;73.50
9971;DHT22;5026;51.494;11.974;2023-06-10T11:57:23;26.90;73.60
9971;DHT22;5026;51.494;11.974;2023-06-10T11:59:50;26.50;73.20
9971;DHT22;5026;51.494;11.974;2023-06-10T12:02:17;26.70;72.60
9971;DHT22;5026;51.494;11.974;2023-06-10T12:04:44;27.00;72.20
9971;DHT22;5026;51.494;11.974;2023-06-10T12:07:17;26.60;72.20
9971;DHT22;5026;51.494;11.974;2023-06-10T12:12:12;27.10;72.20
9971;DHT22;5026;51.494;11.974;2023-06-10T12:14:54;26.80;72.30
9971;DHT22;5026;51.494;11.974;2023-06-10T12:17:22;27.60;72.20
9971;DHT22;5026;51.494;11.974;2023-06-10T12:19:50;27.20;72.00
9971;DHT22;5026;51.494;11.974;2023-06-10T12:22:17;27.10;71.60
9971;DHT22;5026;51.494;11.974;2023-06-10T12:24:45;27.00;71.40
9971;DHT22;5026;51.494;11.974;2023-06-10T12:27:12;27.10;71.40
9971;DHT22;5026;51.494;11.974;2023-06-10T12:29:39;27.60;70.90
9971;DHT22;5026;51.494;11.974;2023-06-10T12:32:08;27.90;69.10
9971;DHT22;5026;51.494;11.974;2023-06-10T12:34:37;27.70;69.60
9971;DHT22;5026;51.494;11.974;2023-06-10T12:37:05;27.60;69.30
9971;DHT22;5026;51.494;11.974;2023-06-10T12:39:33;27.40;68.80
9971;DHT22;5026;51.494;11.974;2023-06-10T12:42:01;27.40;69.00
9971;DHT22;5026;51.494;11.974;2023-06-10T12:44:30;27.50;69.00
9971;DHT22;5026;51.494;11.974;2023-06-10T12:46:56;28.20;68.80
9971;DHT22;5026;51.494;11.974;2023-06-10T12:49:25;28.80;68.50
9971;DHT22;5026;51.494;11.974;2023-06-10T12:51:53;28.10;68.10
9971;DHT22;5026;51.494;11.974;2023-06-10T12:54:20;27.60;69.30
9971;DHT22;5026;51.494;11.974;2023-06-10T12:56:47;27.10;69.50
9971;DHT22;5026;51.494;11.974;2023-06-10T13:01:41;26.80;70.50
9971;DHT22;5026;51.494;11.974;2023-06-10T13:04:08;26.80;69.80
9971;DHT22;5026;51.494;11.974;2023-06-10T13:06:37;27.00;70.20
9971;DHT22;5026;51.494;11.974;2023-06-10T13:09:05;27.10;69.90
9971;DHT22;5026;51.494;11.974;2023-06-10T13:11:33;27.50;68.60
9971;DHT22;5026;51.494;11.974;2023-06-10T13:14:00;26.50;68.40
9971;DHT22;5026;51.494;11.974;2023-06-10T13:16:31;26.90;69.20
9971;DHT22;5026;51.494;11.974;2023-06-10T13:21:27;27.10;69.80
9971;DHT22;5026;51.494;11.974;2023-06-10T13:23:55;27.40;68.80
9971;DHT22;5026;51.494;11.974;2023-06-10T13:26:22;28.10;69.30
9971;DHT22;5026;51.494;11.974;2023-06-10T13:31:16;28.00;65.40
9971;DHT22;5026;51.494;11.974;2023-06-10T13:33:43;28.00;64.70
9971;DHT22;5026;51.494;11.974;2023-06-10T13:36:10;27.90;65.20
9971;DHT22;5026;51.494;11.974;2023-06-10T13:38:38;27.40;64.70
9971;DHT22;5026;51.494;11.974;2023-06-10T13:41:06;27.20;64.80
9971;DHT22;5026;51.494;11.974;2023-06-10T13:46:00;27.50;64.90
9971;DHT22;5026;51.494;11.974;2023-06-10T13:48:27;27.60;64.80
9971;DHT22;5026;51.494;11.974;2023-06-10T13:50:54;27.60;65.20
9971;DHT22;5026;51.494;11.974;2023-06-10T13:55:48;28.20;65.40
9971;DHT22;5026;51.494;11.974;2023-06-10T13:58:17;27.80;65.30
9971;DHT22;5026;51.494;11.974;2023-06-10T14:00:44;28.10;65.60
9971;DHT22;5026;51.494;11.974;2023-06-10T14:05:38;26.00;71.30
9971;DHT22;5026;51.494;11.974;2023-06-10T14:10:33;24.90;74.70
9971;DHT22;5026;51.494;11.974;2023-06-10T14:15:28;23.20;74.60
9971;DHT22;5026;51.494;11.974;2023-06-10T14:20:23;22.80;74.40
9971;DHT22;5026;51.494;11.974;2023-06-10T14:22:52;22.80;79.20
9971;DHT22;5026;51.494;11.974;2023-06-10T14:30:14;22.30;79.30
9971;DHT22;5026;51.494;11.974;2023-06-10T14:32:42;22.60;79.40
9971;DHT22;5026;51.494;11.974;2023-06-10T14:35:09;22.50;78.40
9971;DHT22;5026;51.494;11.974;2023-06-10T14:37:37;22.40;78.20
9971;DHT22;5026;51.494;11.974;2023-06-10T14:40:05;22.30;77.40
9971;DHT22;5026;51.494;11.974;2023-06-10T14:42:32;22.50;77.20
9971;DHT22;5026;51.494;11.974;2023-06-10T14:44:59;22.10;77.60
9971;DHT22;5026;51.494;11.974;2023-06-10T14:47:26;22.10;79.10
9971;DHT22;5026;51.494;11.974;2023-06-10T14:49:54;22.00;81.30
9971;DHT22;5026;51.494;11.974;2023-06-10T14:52:21;21.70;83.10
9971;DHT22;5026;51.494;11.974;2023-06-10T14:54:48;21.60;84.90
9971;DHT22;5026;51.494;11.974;2023-06-10T14:57:15;21.60;85.90
9971;DHT22;5026;51.494;11.974;2023-06-10T14:59:42;22.10;87.80
9971;DHT22;5026;51.494;11.974;2023-06-10T15:02:09;21.30;88.50
9971;DHT22;5026;51.494;11.974;2023-06-10T15:04:36;21.40;90.20
9971;DHT22;5026;51.494;11.974;2023-06-10T15:07:05;21.50;90.70
9971;DHT22;5026;51.494;11.974;2023-06-10T15:09:31;21.50;91.00
9971;DHT22;5026;51.494;11.974;2023-06-10T15:11:59;21.80;91.10
9971;DHT22;5026;51.494;11.974;2023-06-10T15:14:26;21.70;91.20
9971;DHT22;5026;51.494;11.974;2023-06-10T15:19:21;22.00;90.70
9971;DHT22;5026;51.494;11.974;2023-06-10T15:21:48;21.60;90.90
9971;DHT22;5026;51.494;11.974;2023-06-10T15:24:16;22.10;91.10
9971;DHT22;5026;51.494;11.974;2023-06-10T15:26:43;21.70;90.80
9971;DHT22;5026;51.494;11.974;2023-06-10T15:31:38;22.50;90.40
9971;DHT22;5026;51.494;11.974;2023-06-10T15:34:05;22.30;90.10
9971;DHT22;5026;51.494;11.974;2023-06-10T15:36:32;22.70;90.00
9971;DHT22;5026;51.494;11.974;2023-06-10T15:39:02;23.00;89.20
9971;DHT22;5026;51.494;11.974;2023-06-10T15:41:33;23.10;88.70
9971;DHT22;5026;51.494;11.974;2023-06-10T15:44:00;22.90;88.10
9971;DHT22;5026;51.494;11.974;2023-06-10T15:46:28;23.00;87.80
9971;DHT22;5026;51.494;11.974;2023-06-10T15:48:55;22.80;87.10
9971;DHT22;5026;51.494;11.974;2023-06-10T15:51:22;22.60;87.30
9971;DHT22;5026;51.494;11.974;2023-06-10T15:53:49;23.10;87.10
9971;DHT22;5026;51.494;11.974;2023-06-10T15:56:16;23.30;86.60
9971;DHT22;5026;51.494;11.974;2023-06-10T15:58:44;23.40;86.50
9971;DHT22;5026;51.494;11.974;2023-06-10T16:01:11;23.40;85.10
9971;DHT22;5026;51.494;11.974;2023-06-10T16:03:39;23.50;85.30
9971;DHT22;5026;51.494;11.974;2023-06-10T16:06:06;23.80;84.40
9971;DHT22;5026;51.494;11.974;2023-06-10T16:08:34;23.80;84.10
9971;DHT22;5026;51.494;11.974;2023-06-10T16:11:01;23.80;83.70
9971;DHT22;5026;51.494;11.974;2023-06-10T16:13:29;23.80;82.80
9971;DHT22;5026;51.494;11.974;2023-06-10T16:15:57;23.80;82.80
9971;DHT22;5026;51.494;11.974;2023-06-10T16:18:24;23.80;82.30
9971;DHT22;5026;51.494;11.974;2023-06-10T16:20:51;24.00;82.50
9971;DHT22;5026;51.494;11.974;2023-06-10T16:23:18;24.20;82.70
9971;DHT22;5026;51.494;11.974;2023-06-10T16:25:46;23.90;82.20
9971;DHT22;5026;51.494;11.974;2023-06-10T16:28:13;23.50;82.20
9971;DHT22;5026;51.494;11.974;2023-06-10T16:30:40;24.00;82.80
9971;DHT22;5026;51.494;11.974;2023-06-10T16:33:08;24.00;82.80
9971;DHT22;5026;51.494;11.974;2023-06-10T16:35:36;24.50;83.00
9971;DHT22;5026;51.494;11.974;2023-06-10T16:38:03;24.50;83.10
9971;DHT22;5026;51.494;11.974;2023-06-10T16:40:30;24.40;83.20
9971;DHT22;5026;51.494;11.974;2023-06-10T16:42:57;24.30;82.90
9971;DHT22;5026;51.494;11.974;2023-06-10T16:45:24;24.20;82.60
9971;DHT22;5026;51.494;11.974;2023-06-10T16:47:51;24.30;83.20
9971;DHT22;5026;51.494;11.974;2023-06-10T16:50:19;24.20;83.60
9971;DHT22;5026;51.494;11.974;2023-06-10T16:55:13;24.40;85.00
9971;DHT22;5026;51.494;11.974;2023-06-10T16:57:41;24.40;85.50
9971;DHT22;5026;51.494;11.974;2023-06-10T17:00:09;24.50;86.20
9971;DHT22;5026;51.494;11.974;2023-06-10T17:02:36;24.60;85.50
9971;DHT22;5026;51.494;11.974;2023-06-10T17:05:03;24.80;86.80
9971;DHT22;5026;51.494;11.974;2023-06-10T17:07:32;25.10;84.90
9971;DHT22;5026;51.494;11.974;2023-06-10T17:09:59;24.80;85.10
9971;DHT22;5026;51.494;11.974;2023-06-10T17:12:26;24.90;84.20
9971;DHT22;5026;51.494;11.974;2023-06-10T17:14:53;24.90;84.30
9971;DHT22;5026;51.494;11.974;2023-06-10T17:17:20;24.20;84.50
9971;DHT22;5026;51.494;11.974;2023-06-10T17:22:14;24.50;85.20
9971;DHT22;5026;51.494;11.974;2023-06-10T17:24:43;24.30;85.60
9971;DHT22;5026;51.494;11.974;2023-06-10T17:27:09;24.30;86.40
9971;DHT22;5026;51.494;11.974;2023-06-10T17:29:36;24.00;87.30
9971;DHT22;5026;51.494;11.974;2023-06-10T17:32:05;24.10;88.20
9971;DHT22;5026;51.494;11.974;2023-06-10T17:36:59;24.00;90.00
9971;DHT22;5026;51.494;11.974;2023-06-10T17:39:26;23.70;90.00
9971;DHT22;5026;51.494;11.974;2023-06-10T17:41:54;23.70;90.10
9971;DHT22;5026;51.494;11.974;2023-06-10T17:44:22;23.60;89.30
9971;DHT22;5026;51.494;11.974;2023-06-10T17:46:50;23.40;89.20
9971;DHT22;5026;51.494;11.974;2023-06-10T17:49:17;23.10;88.90
9971;DHT22;5026;51.494;11.974;2023-06-10T17:54:11;23.60;89.20
9971;DHT22;5026;51.494;11.974;2023-06-10T17:56:38;23.40;88.30
9971;DHT22;5026;51.494;11.974;2023-06-10T17:59:07;23.40;88.10
9971;DHT22;5026;51.494;11.974;2023-06-10T18:01:34;23.40;87.90
9971;DHT22;5026;51.494;11.974;2023-06-10T18:04:03;23.30;88.00
9971;DHT22;5026;51.494;11.974;2023-06-10T18:06:30;23.20;88.00
9971;DHT22;5026;51.494;11.974;2023-06-10T18:08:57;23.10;88.60
9971;DHT22;5026;51.494;11.974;2023-06-10T18:11:24;23.10;89.20
9971;DHT22;5026;51.494;11.974;2023-06-10T18:16:21;22.90;90.40
9971;DHT22;5026;51.494;11.974;2023-06-10T18:18:49;22.80;90.70
9971;DHT22;5026;51.494;11.974;2023-06-10T18:26:10;22.40;91.50
9971;DHT22;5026;51.494;11.974;2023-06-10T18:28:37;22.50;91.80
9971;DHT22;5026;51.494;11.974;2023-06-10T18:31:04;22.40;92.30
9971;DHT22;5026;51.494;11.974;2023-06-10T18:33:33;22.20;92.70
9971;DHT22;5026;51.494;11.974;2023-06-10T18:36:00;22.50;93.20
9971;DHT22;5026;51.494;11.974;2023-06-10T18:40:54;21.90;94.20
9971;DHT22;5026;51.494;11.974;2023-06-10T18:43:21;21.90;94.50
9971;DHT22;5026;51.494;11.974;2023-06-10T18:45:48;21.80;95.00
9971;DHT22;5026;51.494;11.974;2023-06-10T18:48:15;21.80;95.30
9971;DHT22;5026;51.494;11.974;2023-06-10T18:50:43;21.80;95.90
9971;DHT22;5026;51.494;11.974;2023-06-10T18:53:10;22.00;96.50
9971;DHT22;5026;51.494;11.974;2023-06-10T18:55:37;21.90;96.90
9971;DHT22;5026;51.494;11.974;2023-06-10T18:58:04;21.80;97.30
9971;DHT22;5026;51.494;11.974;2023-06-10T19:00:31;21.70;97.70
9971;DHT22;5026;51.494;11.974;2023-06-10T19:02:58;21.40;97.90
9971;DHT22;5026;51.494;11.974;2023-06-10T19:05:25;21.50;98.30
9971;DHT22;5026;51.494;11.974;2023-06-10T19:07:53;21.40;98.70
9971;DHT22;5026;51.494;11.974;2023-06-10T19:10:20;21.30;99.20
9971;DHT22;5026;51.494;11.974;2023-06-10T19:12:47;21.30;99.60
9971;DHT22;5026;51.494;11.974;2023-06-10T19:17:42;21.20;99.90
9971;DHT22;5026;51.494;11.974;2023-06-10T19:20:09;21.00;99.90
9971;DHT22;5026;51.494;11.974;2023-06-10T19:22:37;21.10;99.90
9971;DHT22;5026;51.494;11.974;2023-06-10T19:25:08;21.00;99.90
9971;DHT22;5026;51.494;11.974;2023-06-10T19:27:35;21.00;99.90